createdAt,value
2018-12-14T17:10:00.779Z,77.99
2018-12-14T17:12:30.024Z,78.13
2018-12-14T17:14:58.349Z,78.63
2018-12-14T17:17:27.892Z,77.77
2018-12-14T17:19:56.339Z,77.78
2018-12-14T17:22:24.999Z,78.22
2018-12-14T17:24:53.219Z,77.97
2018-12-14T17:27:21.559Z,78.82
2018-12-14T17:29:50.880Z,78.91
2018-12-14T17:32:19.249Z,78.55
2018-12-14T17:34:47.433Z,78.63
2018-12-14T17:37:15.864Z,78.81
2018-12-14T17:39:45.232Z,78.55
2018-12-14T17:42:13.754Z,78.67
2018-12-14T17:44:44.279Z,78.41
2018-12-14T17:47:13.759Z,79.48
2018-12-14T17:49:42.370Z,78.09
2018-12-14T17:52:10.864Z,78.38
2018-12-14T17:54:42.620Z,78.76
2018-12-14T17:57:11.013Z,78.83
2018-12-14T17:59:40.484Z,79.65
2018-12-14T18:02:09.899Z,79.28
2018-12-14T18:04:38.560Z,80.12
2018-12-14T18:07:07.324Z,79.83
2018-12-14T18:09:35.975Z,80.24
2018-12-14T18:12:06.292Z,81.13
2018-12-14T18:14:36.857Z,78.88
2018-12-14T18:17:07.125Z,78.67
2018-12-14T18:19:36.221Z,78.73
2018-12-14T18:22:05.725Z,78.41
2018-12-14T18:24:34.575Z,78.94
2018-12-14T18:27:03.740Z,78.33
2018-12-14T18:29:32.339Z,79.04
2018-12-14T18:32:01.877Z,78.94
2018-12-14T18:34:32.869Z,78.39
2018-12-14T18:37:02.480Z,78.15
2018-12-14T18:39:32.379Z,79.00
2018-12-14T18:42:06.094Z,79.09
2018-12-14T18:44:34.686Z,78.33
2018-12-14T18:47:04.760Z,78.03
2018-12-14T18:49:34.244Z,78.33
2018-12-14T18:52:02.745Z,78.43
2018-12-14T18:54:31.336Z,78.88
2018-12-14T18:56:59.845Z,78.78
2018-12-14T18:59:28.680Z,79.52
2018-12-14T19:01:57.089Z,78.70
2018-12-14T19:04:25.610Z,78.63
2018-12-14T19:06:54.520Z,78.76
2018-12-14T19:09:23.100Z,78.29
2018-12-14T19:11:51.574Z,77.33
2018-12-14T19:14:23.819Z,77.77
2018-12-14T19:16:52.335Z,78.31
2018-12-14T19:19:20.940Z,78.08
2018-12-14T19:21:49.370Z,78.99
2018-12-14T19:24:18.910Z,78.63
2018-12-14T19:26:48.936Z,77.74
2018-12-14T19:29:18.640Z,77.83
2018-12-14T19:31:47.177Z,78.66
2018-12-14T19:34:16.712Z,78.57
2018-12-14T19:36:47.325Z,78.12
2018-12-14T19:39:16.135Z,76.87
2018-12-14T19:41:46.024Z,76.98
2018-12-14T19:44:15.603Z,77.29
2018-12-14T19:46:44.175Z,77.55
2018-12-14T19:49:15.775Z,76.44
2018-12-14T19:51:45.451Z,77.10
2018-12-14T19:54:14.130Z,77.69
2018-12-14T19:56:42.924Z,77.12
2018-12-14T19:59:11.470Z,76.62
2018-12-14T20:01:39.945Z,75.51
2018-12-14T20:04:09.006Z,75.74
2018-12-14T20:06:38.531Z,77.39
2018-12-14T20:09:07.475Z,77.80
2018-12-14T20:11:37.905Z,76.96
2018-12-14T20:14:06.449Z,78.31
2018-12-14T20:16:35.205Z,77.06
2018-12-14T20:19:03.665Z,77.48
2018-12-14T20:21:32.244Z,77.85
2018-12-14T20:24:00.869Z,78.03
2018-12-14T20:26:29.441Z,77.35
2018-12-14T20:28:58.111Z,77.48
2018-12-14T20:31:28.275Z,76.61
2018-12-14T20:33:56.892Z,77.04
2018-12-14T20:36:25.489Z,76.36
2018-12-14T20:38:55.989Z,77.88
2018-12-14T20:41:24.554Z,76.81
2018-12-14T20:43:54.719Z,76.65
2018-12-14T20:46:23.330Z,76.72
2018-12-14T20:48:51.770Z,77.43
2018-12-14T20:51:20.224Z,77.12
2018-12-14T20:53:50.414Z,77.25
2018-12-14T20:56:20.019Z,77.56
2018-12-14T20:58:49.059Z,77.59
2018-12-14T21:01:17.664Z,76.88
2018-12-14T21:03:46.399Z,76.26
2018-12-14T21:06:18.086Z,77.74
2018-12-14T21:08:46.734Z,76.03
2018-12-14T21:11:15.356Z,76.20
2018-12-14T21:13:43.820Z,76.22
2018-12-14T21:16:12.544Z,76.19
2018-12-14T21:18:41.119Z,76.66
2018-12-14T21:21:10.564Z,77.62
2018-12-14T21:23:43.011Z,77.22
2018-12-14T21:26:11.845Z,77.28
2018-12-14T21:28:40.264Z,77.44
2018-12-14T21:31:08.670Z,76.55
2018-12-14T21:33:37.154Z,77.43
2018-12-14T21:36:07.865Z,76.59
2018-12-14T21:38:38.539Z,77.14
2018-12-14T21:41:07.350Z,76.55
2018-12-14T21:43:37.644Z,76.75
2018-12-14T21:46:07.144Z,76.62
2018-12-14T21:48:36.219Z,76.37
2018-12-14T21:51:06.839Z,77.69
2018-12-14T21:53:35.204Z,78.39
2018-12-14T21:56:03.249Z,77.46
2018-12-14T21:58:32.072Z,77.72
2018-12-14T22:01:00.710Z,77.63
2018-12-14T22:03:28.920Z,78.11
2018-12-14T22:05:57.051Z,77.09
2018-12-14T22:08:25.109Z,77.13
2018-12-14T22:10:53.214Z,78.46
2018-12-14T22:13:23.299Z,76.86
2018-12-14T22:15:51.400Z,77.35
2018-12-14T22:18:19.734Z,76.95
2018-12-14T22:20:47.720Z,76.89
2018-12-14T22:23:15.819Z,76.63
2018-12-14T22:25:46.810Z,77.02
2018-12-14T22:28:14.885Z,77.51
2018-12-14T22:30:42.934Z,78.10
2018-12-14T22:33:11.073Z,77.70
2018-12-14T22:35:39.078Z,78.43
2018-12-14T22:38:08.154Z,78.38
2018-12-14T22:40:36.219Z,79.17
2018-12-14T22:43:04.238Z,78.06
2018-12-14T22:45:32.259Z,79.05
2018-12-14T22:48:00.299Z,79.62
2018-12-14T22:50:28.244Z,79.13
2018-12-14T22:52:56.169Z,79.32
2018-12-14T22:55:24.164Z,78.58
2018-12-14T22:57:52.119Z,78.55
2018-12-14T23:00:20.464Z,78.53
2018-12-14T23:02:48.629Z,78.39
2018-12-14T23:05:16.614Z,78.36
2018-12-14T23:07:44.535Z,78.36
2018-12-14T23:10:12.479Z,79.06
2018-12-14T23:12:40.459Z,77.88
2018-12-14T23:15:08.699Z,78.21
2018-12-14T23:17:36.634Z,78.69
2018-12-14T23:20:06.039Z,78.09
2018-12-14T23:22:34.079Z,79.10
2018-12-14T23:25:02.148Z,78.21
2018-12-14T23:27:30.060Z,78.08
2018-12-14T23:29:58.029Z,78.62
2018-12-14T23:32:26.025Z,77.97
2018-12-14T23:34:54.039Z,77.82
2018-12-14T23:37:22.099Z,78.54
2018-12-14T23:39:50.254Z,78.57
2018-12-14T23:42:18.299Z,79.66
2018-12-14T23:44:46.294Z,79.03
2018-12-14T23:47:14.264Z,78.61
2018-12-14T23:49:42.234Z,78.95
2018-12-14T23:52:10.242Z,78.54
2018-12-14T23:54:38.194Z,78.86
2018-12-14T23:57:12.117Z,78.47
2018-12-14T23:59:36.619Z,77.86
